createdAt,value
2023-04-24T00:01:59.521Z,98408.84
2023-04-24T00:04:36.386Z,98400.78
2023-04-24T00:07:10.573Z,98395.56
2023-04-24T00:09:44.995Z,98394.53
2023-04-24T00:12:24.004Z,98398.25
2023-04-24T00:14:52.429Z,98392.25
2023-04-24T00:17:26.657Z,98394.28
2023-04-24T00:20:14.014Z,98392.88
2023-04-24T00:22:43.348Z,98394.94
2023-04-24T00:25:14.217Z,98396.59
2023-04-24T00:27:43.924Z,98395.38
2023-04-24T00:30:13.782Z,98397.44
2023-04-24T00:32:45.419Z,98400.94
2023-04-24T00:35:18.983Z,98392.88
2023-04-24T00:37:57.719Z,98391.66
2023-04-24T00:40:32.760Z,98387.47
2023-04-24T00:43:10.556Z,98385.44
2023-04-24T00:45:41.677Z,98381.72
2023-04-24T00:48:13.581Z,98373.22
2023-04-24T00:50:46.600Z,98389.34
2023-04-24T00:53:20.586Z,98392.47
2023-04-24T00:55:51.330Z,98390.38
2023-04-24T00:58:24.452Z,98384.41
2023-04-24T01:00:55.175Z,98382.09
2023-04-24T01:03:31.643Z,98389.97
2023-04-24T01:06:11.971Z,98397.19
2023-04-24T01:08:57.728Z,98397.63
2023-04-24T01:11:27.717Z,98396.34
2023-04-24T01:14:09.764Z,98402.59
2023-04-24T01:16:40.339Z,98394.94
2023-04-24T01:19:08.924Z,98409.19
2023-04-24T01:21:50.309Z,98403.59
2023-04-24T01:24:27.106Z,98402.75
2023-04-24T01:26:58.540Z,98413.72
2023-04-24T01:29:30.470Z,98406.22
2023-04-24T01:32:03.716Z,98398.63
2023-04-24T01:34:33.685Z,98412.69
2023-04-24T01:37:04.532Z,98409.94
2023-04-24T01:39:37.141Z,98406.16
2023-04-24T01:42:15.636Z,98416.94
2023-04-24T01:44:46.247Z,98415.06
2023-04-24T01:47:25.112Z,98416.72
2023-04-24T01:49:54.552Z,98403.91
2023-04-24T01:52:26.347Z,98403.50
2023-04-24T01:55:09.835Z,98400.56
2023-04-24T01:57:49.118Z,98397.13
2023-04-24T02:00:23.843Z,98401.38
2023-04-24T02:02:57.614Z,98402.88
2023-04-24T02:05:31.500Z,98416.75
2023-04-24T02:08:03.469Z,98410.72
2023-04-24T02:10:35.754Z,98421.59
2023-04-24T02:13:05.795Z,98422.13
2023-04-24T02:15:34.094Z,98407.72
2023-04-24T02:18:02.512Z,98404.31
2023-04-24T02:20:36.490Z,98396.06
2023-04-24T02:23:12.822Z,98405.81
2023-04-24T02:25:48.175Z,98406.31
2023-04-24T02:28:30.716Z,98404.91
2023-04-24T02:31:05.737Z,98407.19
2023-04-24T02:33:42.343Z,98410.06
2023-04-24T02:36:14.230Z,98415.25
2023-04-24T02:38:47.286Z,98412.97
2023-04-24T02:41:25.068Z,98410.25
2023-04-24T02:43:55.927Z,98405.28
2023-04-24T02:46:24.203Z,98395.91
2023-04-24T02:49:01.943Z,98394.47
2023-04-24T02:51:32.854Z,98391.19
2023-04-24T02:54:09.886Z,98389.13
2023-04-24T02:56:39.918Z,98382.50
2023-04-24T02:59:17.792Z,98388.22
2023-04-24T03:01:48.499Z,98384.09
2023-04-24T03:04:21.571Z,98372.91
2023-04-24T03:06:53.175Z,98373.69
2023-04-24T03:09:30.374Z,98379.03
2023-04-24T03:12:10.202Z,98387.00
2023-04-24T03:14:40.379Z,98373.41
2023-04-24T03:17:10.608Z,98377.69
2023-04-24T03:19:42.020Z,98374.84
2023-04-24T03:22:23.509Z,98361.13
2023-04-24T03:24:58.269Z,98365.84
2023-04-24T03:27:50.243Z,98364.63
2023-04-24T03:30:42.416Z,98367.31
2023-04-24T03:33:22.165Z,98358.88
2023-04-24T03:36:02.500Z,98372.78
2023-04-24T03:38:39.990Z,98368.63
2023-04-24T03:41:28.576Z,98372.97
2023-04-24T03:44:26.047Z,98379.41
2023-04-24T03:46:54.304Z,98368.00
2023-04-24T03:49:27.180Z,98377.94
2023-04-24T03:51:55.600Z,98367.53
2023-04-24T03:54:32.500Z,98366.97
2023-04-24T03:57:02.562Z,98381.53
2023-04-24T03:59:41.485Z,98365.31
2023-04-24T04:02:24.667Z,98358.69
2023-04-24T04:04:55.511Z,98378.34
2023-04-24T04:07:29.956Z,98375.03
2023-04-24T04:10:04.265Z,98381.41
2023-04-24T04:12:36.003Z,98383.88
2023-04-24T04:15:14.395Z,98388.63
2023-04-24T04:17:43.413Z,98371.84
2023-04-24T04:20:18.967Z,98388.94
2023-04-24T04:22:48.594Z,98381.66
2023-04-24T04:25:26.715Z,98389.56
2023-04-24T04:27:56.001Z,98382.53
2023-04-24T04:30:30.484Z,98386.78
2023-04-24T04:33:08.924Z,98382.19
2023-04-24T04:35:37.578Z,98379.13
2023-04-24T04:38:09.420Z,98385.19
2023-04-24T04:41:01.668Z,98387.78
2023-04-24T04:43:35.818Z,98383.34
2023-04-24T04:46:09.578Z,98380.50
2023-04-24T04:48:55.315Z,98376.38
2023-04-24T04:51:42.467Z,98387.00
2023-04-24T04:54:12.001Z,98387.38
2023-04-24T04:56:48.651Z,98379.94
2023-04-24T04:59:17.554Z,98386.59
2023-04-24T05:01:56.330Z,98391.59
2023-04-24T05:04:28.226Z,98396.97
2023-04-24T05:07:00.014Z,98397.56
2023-04-24T05:09:33.180Z,98395.31
2023-04-24T05:12:26.961Z,98395.06
2023-04-24T05:14:59.530Z,98397.69
2023-04-24T05:17:33.415Z,98408.59
2023-04-24T05:20:04.889Z,98392.63
2023-04-24T05:22:37.866Z,98392.91
2023-04-24T05:25:15.919Z,98402.00
2023-04-24T05:28:03.051Z,98406.34
2023-04-24T05:30:41.217Z,98412.19
2023-04-24T05:33:13.179Z,98413.22
2023-04-24T05:35:46.743Z,98409.56
2023-04-24T05:38:23.320Z,98408.88
2023-04-24T05:40:52.880Z,98400.03
2023-04-24T05:43:26.946Z,98400.63
2023-04-24T05:45:56.391Z,98400.38
2023-04-24T05:48:27.728Z,98399.41
2023-04-24T05:50:57.161Z,98396.91
2023-04-24T05:53:28.465Z,98400.72
2023-04-24T05:55:57.892Z,98414.03
2023-04-24T05:58:27.942Z,98414.06
2023-04-24T06:01:00.614Z,98417.75
2023-04-24T06:03:39.612Z,98406.03
2023-04-24T06:06:16.254Z,98407.94
2023-04-24T06:08:57.122Z,98410.63
2023-04-24T06:11:28.469Z,98424.22
2023-04-24T06:14:11.126Z,98397.56
2023-04-24T06:16:50.194Z,98395.97
2023-04-24T06:19:36.307Z,98407.19
2023-04-24T06:22:09.708Z,98415.84
2023-04-24T06:24:39.024Z,98407.16
2023-04-24T06:27:09.571Z,98413.72
2023-04-24T06:29:39.170Z,98405.50
2023-04-24T06:32:11.030Z,98406.16
2023-04-24T06:34:53.633Z,98409.84
2023-04-24T06:37:27.374Z,98404.50
2023-04-24T06:39:56.544Z,98396.50
2023-04-24T06:42:26.848Z,98408.34
2023-04-24T06:45:03.675Z,98402.47
2023-04-24T06:47:32.680Z,98408.28
2023-04-24T06:50:11.178Z,98403.50
2023-04-24T06:52:41.597Z,98407.69
2023-04-24T06:55:12.293Z,98410.78
2023-04-24T06:57:42.129Z,98400.84
2023-04-24T07:00:12.942Z,98418.47
2023-04-24T07:02:43.842Z,98408.09
2023-04-24T07:05:19.587Z,98411.56
2023-04-24T07:07:52.865Z,98410.13
2023-04-24T07:10:23.266Z,98417.19
2023-04-24T07:12:53.616Z,98412.19
2023-04-24T07:15:31.564Z,98421.97
2023-04-24T07:18:03.347Z,98429.34
2023-04-24T07:20:53.835Z,98422.97
2023-04-24T07:23:25.083Z,98427.03
2023-04-24T07:26:02.611Z,98429.53
2023-04-24T07:28:34.692Z,98429.81
2023-04-24T07:31:06.560Z,98437.09
2023-04-24T07:33:38.238Z,98429.22
2023-04-24T07:36:24.506Z,98444.47
2023-04-24T07:38:54.912Z,98451.75
2023-04-24T07:41:31.044Z,98454.63
2023-04-24T07:44:02.987Z,98480.34
2023-04-24T07:46:32.633Z,98451.44
2023-04-24T07:49:12.881Z,98454.78
2023-04-24T07:51:48.576Z,98465.06
2023-04-24T07:54:17.711Z,98461.66
2023-04-24T07:56:46.259Z,98462.28
2023-04-24T07:59:25.326Z,98478.91
2023-04-24T08:01:53.758Z,98482.03
2023-04-24T08:04:25.571Z,98464.47
2023-04-24T08:06:58.230Z,98475.78
2023-04-24T08:09:34.840Z,98477.72
2023-04-24T08:12:07.795Z,98490.72
2023-04-24T08:14:45.350Z,98494.59
2023-04-24T08:17:16.468Z,98488.41
2023-04-24T08:20:02.685Z,98487.59
2023-04-24T08:22:39.801Z,98503.38
2023-04-24T08:25:20.864Z,98501.50
2023-04-24T08:27:49.760Z,98495.31
2023-04-24T08:30:29.491Z,98496.91
2023-04-24T08:33:01.311Z,98496.09
2023-04-24T08:35:33.102Z,98500.03
2023-04-24T08:38:05.336Z,98524.06
2023-04-24T08:40:39.357Z,98508.41
2023-04-24T08:43:07.668Z,98535.94
2023-04-24T08:45:39.538Z,98512.84
2023-04-24T08:48:19.864Z,98513.91
2023-04-24T08:51:09.858Z,98543.06
2023-04-24T08:53:44.192Z,98525.91
2023-04-24T08:56:19.006Z,98530.88
2023-04-24T08:58:49.266Z,98554.44
2023-04-24T09:01:19.261Z,98533.63
2023-04-24T09:03:56.633Z,98541.41
2023-04-24T09:06:28.387Z,98528.06
2023-04-24T09:09:03.534Z,98527.28
2023-04-24T09:11:36.416Z,98531.63
2023-04-24T09:14:13.267Z,98531.84
2023-04-24T09:16:46.116Z,98535.31
2023-04-24T09:19:14.608Z,98536.66
2023-04-24T09:21:49.298Z,98549.72
2023-04-24T09:24:26.039Z,98536.16
2023-04-24T09:27:00.118Z,98540.78
2023-04-24T09:29:31.040Z,98541.31
2023-04-24T09:32:00.538Z,98553.06
2023-04-24T09:34:32.602Z,98545.63
2023-04-24T09:37:02.508Z,98541.50
2023-04-24T09:39:39.260Z,98533.47
2023-04-24T09:42:08.719Z,98529.94
2023-04-24T09:44:37.703Z,98562.13
2023-04-24T09:47:20.895Z,98543.22
2023-04-24T09:49:58.930Z,98548.31
2023-04-24T09:52:29.099Z,98552.16
2023-04-24T09:55:06.774Z,98557.59
2023-04-24T09:57:37.075Z,98564.72
2023-04-24T10:00:10.913Z,98540.41
2023-04-24T10:02:40.835Z,98547.72
2023-04-24T10:05:16.853Z,98558.97
2023-04-24T10:07:49.587Z,98544.56
2023-04-24T10:10:25.027Z,98551.78
2023-04-24T10:12:55.878Z,98554.91
2023-04-24T10:15:24.948Z,98549.47
2023-04-24T10:17:54.580Z,98568.41
2023-04-24T10:20:32.415Z,98566.53
2023-04-24T10:23:02.925Z,98574.75
2023-04-24T10:25:38.130Z,98559.91
2023-04-24T10:28:10.504Z,98570.13
2023-04-24T10:30:39.828Z,98573.56
2023-04-24T10:33:10.656Z,98581.31
2023-04-24T10:35:43.682Z,98563.69
2023-04-24T10:38:25.121Z,98589.06
2023-04-24T10:41:02.021Z,98576.34
2023-04-24T10:43:31.378Z,98578.66
2023-04-24T10:46:07.913Z,98576.88
2023-04-24T10:48:37.152Z,98607.06
2023-04-24T10:51:07.634Z,98578.16
2023-04-24T10:53:37.696Z,98576.50
2023-04-24T10:56:10.773Z,98582.53
2023-04-24T10:58:48.657Z,98582.97
2023-04-24T11:01:29.101Z,98582.19
2023-04-24T11:04:01.793Z,98581.22
2023-04-24T11:06:44.438Z,98599.25
2023-04-24T11:09:14.160Z,98589.09
2023-04-24T11:11:49.114Z,98581.69
2023-04-24T11:14:21.124Z,98586.75
2023-04-24T11:16:57.463Z,98589.75
2023-04-24T11:19:29.058Z,98583.47
2023-04-24T11:22:01.474Z,98591.03
2023-04-24T11:24:35.082Z,98591.47
2023-04-24T11:27:19.966Z,98599.34
2023-04-24T11:29:51.855Z,98593.44
2023-04-24T11:32:31.837Z,98604.88
2023-04-24T11:35:02.576Z,98596.28
2023-04-24T11:37:37.313Z,98602.59
2023-04-24T11:40:06.865Z,98596.50
2023-04-24T11:42:42.545Z,98591.13
2023-04-24T11:45:17.241Z,98595.38
2023-04-24T11:47:47.303Z,98588.91
2023-04-24T11:50:26.726Z,98587.16
2023-04-24T11:52:59.023Z,98587.41
2023-04-24T11:55:37.607Z,98586.28
2023-04-24T11:58:08.543Z,98589.78
2023-04-24T12:00:39.429Z,98585.19
2023-04-24T12:03:10.183Z,98594.44
2023-04-24T12:05:40.148Z,98596.94
2023-04-24T12:08:14.078Z,98592.47
2023-04-24T12:10:42.917Z,98579.72
2023-04-24T12:13:13.486Z,98593.19
2023-04-24T12:15:45.264Z,98588.06
2023-04-24T12:18:17.316Z,98584.53
2023-04-24T12:20:46.240Z,98582.91
2023-04-24T12:23:15.782Z,98587.00
2023-04-24T12:25:43.990Z,98579.66
2023-04-24T12:28:15.609Z,98579.03
2023-04-24T12:30:48.947Z,98581.41
2023-04-24T12:33:23.623Z,98564.44
2023-04-24T12:35:59.133Z,98566.06
2023-04-24T12:38:41.692Z,98571.16
2023-04-24T12:41:15.245Z,98560.22
2023-04-24T12:43:58.536Z,98573.81
2023-04-24T12:46:29.049Z,98561.00
2023-04-24T12:49:00.498Z,98558.00
2023-04-24T12:51:29.306Z,98562.31
2023-04-24T12:54:01.618Z,98558.00
2023-04-24T12:56:32.698Z,98559.66
2023-04-24T12:59:04.533Z,98551.97
2023-04-24T13:01:34.192Z,98557.47
2023-04-24T13:04:06.254Z,98553.97
2023-04-24T13:06:35.994Z,98557.88
2023-04-24T13:09:06.296Z,98549.41
2023-04-24T13:11:46.055Z,98549.75
2023-04-24T13:14:20.520Z,98544.47
2023-04-24T13:16:49.384Z,98544.50
2023-04-24T13:19:19.196Z,98544.41
2023-04-24T13:21:50.066Z,98547.81
2023-04-24T13:24:28.615Z,98539.69
2023-04-24T13:26:59.160Z,98529.81
2023-04-24T13:29:28.831Z,98538.66
2023-04-24T13:31:57.631Z,98534.91
2023-04-24T13:34:29.944Z,98534.00
2023-04-24T13:37:07.457Z,98526.19
2023-04-24T13:39:37.879Z,98528.06
2023-04-24T13:42:15.899Z,98531.34
2023-04-24T13:44:48.180Z,98532.97
2023-04-24T13:47:21.785Z,98530.47
2023-04-24T13:49:51.112Z,98526.38
2023-04-24T13:52:27.467Z,98528.75
2023-04-24T13:54:56.790Z,98531.31
2023-04-24T13:57:25.119Z,98533.09
2023-04-24T13:59:59.007Z,98530.09
2023-04-24T14:02:28.752Z,98539.22
2023-04-24T14:05:01.848Z,98534.41
2023-04-24T14:07:31.643Z,98536.56
2023-04-24T14:10:03.642Z,98543.94
2023-04-24T14:12:34.431Z,98542.09
2023-04-24T14:15:14.564Z,98541.53
2023-04-24T14:17:43.239Z,98540.38
2023-04-24T14:20:14.260Z,98543.94
2023-04-24T14:22:43.083Z,98545.94
2023-04-24T14:25:12.816Z,98552.81
2023-04-24T14:27:41.173Z,98548.22
2023-04-24T14:30:14.190Z,98546.25
2023-04-24T14:32:45.873Z,98545.81
2023-04-24T14:35:20.304Z,98541.22
2023-04-24T14:37:49.536Z,98542.47
2023-04-24T14:40:48.492Z,98544.34
2023-04-24T14:43:10.954Z,98550.78
2023-04-24T14:45:43.383Z,98553.41
2023-04-24T14:48:15.154Z,98561.28
2023-04-24T14:50:51.921Z,98558.16
2023-04-24T14:53:36.182Z,98560.19
2023-04-24T14:56:05.875Z,98565.19
2023-04-24T14:58:41.834Z,98564.38
2023-04-24T15:01:22.175Z,98568.34
2023-04-24T15:03:54.382Z,98562.50
2023-04-24T15:06:33.868Z,98555.19
2023-04-24T15:09:04.795Z,98553.47
2023-04-24T15:11:37.486Z,98560.78
2023-04-24T15:14:06.311Z,98561.03
2023-04-24T15:16:52.616Z,98557.91
2023-04-24T15:19:23.792Z,98559.25
2023-04-24T15:21:53.282Z,98557.72
2023-04-24T15:24:24.265Z,98562.53
2023-04-24T15:26:54.293Z,98562.28
2023-04-24T15:29:26.764Z,98567.16
2023-04-24T15:32:01.631Z,98570.03
2023-04-24T15:34:33.167Z,98575.97
2023-04-24T15:37:04.819Z,98569.31
2023-04-24T15:39:42.586Z,98570.06
2023-04-24T15:42:19.054Z,98578.28
2023-04-24T15:44:50.929Z,98570.59
2023-04-24T15:47:25.640Z,98581.41
2023-04-24T15:49:55.357Z,98598.16
2023-04-24T15:52:30.761Z,98617.38
2023-04-24T15:55:00.144Z,98636.44
2023-04-24T15:57:29.158Z,98614.22
2023-04-24T16:00:00.876Z,98619.16
2023-04-24T16:02:33.439Z,98611.47
2023-04-24T16:05:09.827Z,98616.34
2023-04-24T16:07:47.708Z,98611.16
2023-04-24T16:10:25.272Z,98605.34
2023-04-24T16:12:54.845Z,98608.28
2023-04-24T16:15:33.209Z,98617.78
2023-04-24T16:18:07.635Z,98611.25
2023-04-24T16:20:37.034Z,98620.53
2023-04-24T16:23:05.401Z,98622.22
2023-04-24T16:25:35.414Z,98627.03
2023-04-24T16:28:13.924Z,98627.75
2023-04-24T16:30:47.984Z,98636.16
2023-04-24T16:33:24.352Z,98639.59
2023-04-24T16:36:00.137Z,98657.13
2023-04-24T16:38:31.828Z,98649.44
2023-04-24T16:41:03.438Z,98639.38
2023-04-24T16:43:38.550Z,98640.66
2023-04-24T16:46:10.758Z,98642.72
2023-04-24T16:48:54.382Z,98638.56
2023-04-24T16:51:29.547Z,98642.44
2023-04-24T16:54:02.762Z,98639.69
2023-04-24T16:56:32.129Z,98632.13
2023-04-24T16:59:00.785Z,98631.22
2023-04-24T17:01:30.655Z,98625.22
2023-04-24T17:04:09.289Z,98631.75
2023-04-24T17:06:41.504Z,98628.47
2023-04-24T17:09:15.919Z,98635.56
2023-04-24T17:11:45.296Z,98632.44
2023-04-24T17:14:17.864Z,98637.28
2023-04-24T17:16:49.175Z,98642.28
2023-04-24T17:19:26.754Z,98640.56
2023-04-24T17:22:06.120Z,98641.19
2023-04-24T17:24:37.638Z,98637.63
2023-04-24T17:27:14.844Z,98635.72
2023-04-24T17:29:47.154Z,98644.34
2023-04-24T17:32:24.670Z,98636.22
2023-04-24T17:35:02.062Z,98635.97
2023-04-24T17:37:32.200Z,98647.38
2023-04-24T17:40:22.591Z,98652.63
2023-04-24T17:43:07.724Z,98648.78
2023-04-24T17:45:47.941Z,98652.56
2023-04-24T17:48:22.771Z,98655.31
2023-04-24T17:50:57.763Z,98664.72
2023-04-24T17:53:27.248Z,98643.13
2023-04-24T17:56:02.101Z,98658.50
2023-04-24T17:58:43.642Z,98650.63
2023-04-24T18:01:24.216Z,98660.50
2023-04-24T18:04:00.463Z,98659.34
2023-04-24T18:06:40.051Z,98659.34
2023-04-24T18:09:09.950Z,98656.84
2023-04-24T18:11:44.651Z,98660.56
2023-04-24T18:14:16.042Z,98669.72
2023-04-24T18:16:47.748Z,98664.22
2023-04-24T18:19:18.942Z,98680.22
2023-04-24T18:22:09.744Z,98676.78
2023-04-24T18:24:47.644Z,98689.38
2023-04-24T18:27:27.355Z,98693.34
2023-04-24T18:30:01.714Z,98683.59
2023-04-24T18:32:47.522Z,98693.00
2023-04-24T18:35:25.857Z,98705.06
2023-04-24T18:38:09.703Z,98695.59
2023-04-24T18:40:41.185Z,98692.16
2023-04-24T18:43:12.344Z,98687.13
2023-04-24T18:45:46.769Z,98694.13
2023-04-24T18:48:16.980Z,98692.34
2023-04-24T18:50:50.071Z,98690.31
2023-04-24T18:53:24.995Z,98698.28
2023-04-24T18:56:14.623Z,98696.56
2023-04-24T18:58:47.273Z,98715.00
2023-04-24T19:01:21.986Z,98697.91
2023-04-24T19:04:06.518Z,98706.28
2023-04-24T19:06:51.657Z,98721.38
2023-04-24T19:09:45.692Z,98716.09
2023-04-24T19:12:19.959Z,98721.63
2023-04-24T19:14:56.562Z,98705.06
2023-04-24T19:17:28.327Z,98717.94
2023-04-24T19:20:04.066Z,98708.59
2023-04-24T19:22:43.924Z,98715.28
2023-04-24T19:25:20.379Z,98713.97
2023-04-24T19:27:53.255Z,98733.88
2023-04-24T19:30:26.070Z,98725.97
2023-04-24T19:32:56.524Z,98713.38
2023-04-24T19:35:32.236Z,98726.09
2023-04-24T19:38:10.019Z,98728.09
2023-04-24T19:40:43.741Z,98731.34
2023-04-24T19:43:17.128Z,98722.41
2023-04-24T19:46:01.456Z,98744.44
2023-04-24T19:48:36.937Z,98737.59
2023-04-24T19:51:17.145Z,98736.56
2023-04-24T19:53:52.516Z,98731.06
2023-04-24T19:56:22.610Z,98735.75
2023-04-24T19:58:54.485Z,98732.06
2023-04-24T20:01:28.488Z,98718.09
2023-04-24T20:03:59.778Z,98719.06
2023-04-24T20:06:31.864Z,98721.09
2023-04-24T20:09:01.821Z,98727.06
2023-04-24T20:11:34.457Z,98729.19
2023-04-24T20:14:14.477Z,98713.69
2023-04-24T20:16:54.380Z,98731.31
2023-04-24T20:19:26.263Z,98715.16
2023-04-24T20:21:58.989Z,98730.88
2023-04-24T20:24:32.570Z,98724.13
2023-04-24T20:27:10.399Z,98725.94
2023-04-24T20:29:50.990Z,98717.75
2023-04-24T20:32:32.958Z,98724.06
2023-04-24T20:35:02.736Z,98725.44
2023-04-24T20:37:33.959Z,98724.06
2023-04-24T20:40:11.822Z,98729.97
2023-04-24T20:42:45.932Z,98732.13
2023-04-24T20:45:28.033Z,98734.41
2023-04-24T20:47:58.390Z,98740.44
2023-04-24T20:50:33.530Z,98734.63
2023-04-24T20:53:04.320Z,98743.34
2023-04-24T20:55:40.388Z,98742.66
2023-04-24T20:58:11.500Z,98735.47
2023-04-24T21:00:44.359Z,98733.59
2023-04-24T21:03:21.335Z,98753.34
2023-04-24T21:05:52.693Z,98760.34
2023-04-24T21:08:36.805Z,98747.50
2023-04-24T21:11:20.463Z,98756.19
2023-04-24T21:13:50.435Z,98752.34
2023-04-24T21:16:25.855Z,98742.97
2023-04-24T21:18:55.946Z,98748.50
2023-04-24T21:21:25.494Z,98745.00
2023-04-24T21:24:05.793Z,98744.66
2023-04-24T21:26:43.880Z,98750.50
2023-04-24T21:29:16.463Z,98751.53
2023-04-24T21:31:56.021Z,98750.22
2023-04-24T21:34:27.651Z,98747.88
2023-04-24T21:37:05.606Z,98768.03
2023-04-24T21:39:34.962Z,98760.84
2023-04-24T21:42:05.357Z,98762.91
2023-04-24T21:44:35.197Z,98749.06
2023-04-24T21:47:11.158Z,98761.38
2023-04-24T21:49:43.064Z,98759.59
2023-04-24T21:52:27.113Z,98754.50
2023-04-24T21:54:57.826Z,98762.34
2023-04-24T21:57:31.313Z,98761.16
2023-04-24T22:00:01.381Z,98765.47
2023-04-24T22:02:38.390Z,98760.47
2023-04-24T22:05:16.569Z,98759.03
2023-04-24T22:07:59.396Z,98749.13
2023-04-24T22:10:37.309Z,98760.38
2023-04-24T22:13:10.255Z,98757.66
2023-04-24T22:15:42.777Z,98775.88
2023-04-24T22:18:13.413Z,98767.22
2023-04-24T22:20:42.758Z,98757.22
2023-04-24T22:23:13.603Z,98752.19
2023-04-24T22:25:44.841Z,98768.38
2023-04-24T22:28:16.521Z,98750.69
2023-04-24T22:30:48.752Z,98759.72
2023-04-24T22:33:24.518Z,98743.69
2023-04-24T22:35:55.377Z,98750.50
2023-04-24T22:38:32.917Z,98752.84
2023-04-24T22:41:02.726Z,98755.28
2023-04-24T22:43:31.533Z,98763.91
2023-04-24T22:46:05.862Z,98764.91
2023-04-24T22:48:36.588Z,98759.88
2023-04-24T22:51:06.487Z,98765.94
2023-04-24T22:53:36.334Z,98759.03
2023-04-24T22:56:04.612Z,98766.25
2023-04-24T22:58:33.671Z,98762.41
2023-04-24T23:01:04.230Z,98763.56
2023-04-24T23:03:53.880Z,98764.25
2023-04-24T23:06:26.127Z,98764.09
2023-04-24T23:09:00.590Z,98759.25
2023-04-24T23:11:31.003Z,98753.56
2023-04-24T23:14:02.124Z,98758.22
2023-04-24T23:16:37.874Z,98768.94
2023-04-24T23:19:16.053Z,98750.88
2023-04-24T23:21:45.644Z,98757.88
2023-04-24T23:24:14.649Z,98762.94
2023-04-24T23:26:43.407Z,98757.94
2023-04-24T23:29:14.854Z,98774.78
2023-04-24T23:31:43.203Z,98756.94
2023-04-24T23:34:27.865Z,98761.28
2023-04-24T23:37:10.718Z,98772.97
2023-04-24T23:39:44.105Z,98764.94
2023-04-24T23:42:24.884Z,98767.28
2023-04-24T23:44:54.714Z,98772.81
2023-04-24T23:47:39.037Z,98763.97
2023-04-24T23:50:17.224Z,98770.44
2023-04-24T23:52:48.489Z,98772.97
2023-04-24T23:55:26.332Z,98786.16
2023-04-24T23:57:54.744Z,98761.78
